メインページ
METAR-TAF:

METAR-TAF

空港 :

マニラ, フィリピン

ニノイ・アキノ国際空港

緯度: 14-31N, 経度: 121-00E, 海抜: 14m

現時点の気象観測

当レポートは32分前の16:00(UTC)に作成
無風
気温 27°C
湿度 100%
気圧 1012 hPa
視程10km以上
高度2300ftの雲は散在している
高度8000ftの曇り
小雨

METAR: RPLL 221600Z 00000KT 9999 -RA SCT023 OVC080 27/27 Q1012 NOSIG RMK A2988

時間: 00:32 (16:32 UTC)

予報

当レポートは5時間32分前の11:00(UTC)に作成
予報は22日の 12時(UTC)から 23日の 18時(UTC)まで有効
西の風 5kt
視程10km以上
高度2500ftの雲はほとんどない
高度10000ftの雲は散在している
22日の 12時(UTC)から 22日の 18時(UTC)まで一時的に
西/南西の風 6kt
視程: 9000m
高度2300ftの雲は散在している
高度10000ftの曇り
激しい雷雨, 小雨
22日の 18時(UTC)から 22日の 24時(UTC)まで一時的に
変向風 3kt
視程: 9000m
高度2300ftの雲はほとんどない
高度10000ftの千切れ雲あり
弱いにわか雨

TAF: RPLL 221100Z 2212/2318 26005KT 9999 FEW025 SCT100 TX33/2306Z TN24/2222Z TEMPO 2212/2218 24006KT 9000 -TSRA FEW20CB SCT023 OVC100 TEMPO 2218/2224 VRB03KT 9000 -SHRA FEW023 BKN100

4,000以上の空港の気象観測と天気予報(METAR報とTAF報)

利用可能な観測所は地図上に黄色い丸と赤い丸で示す。

丸の上にカーソルを重ねると観測所名を参照できる。

次にクリックすると気象観測と天気予報を参照できる。

マップの切り替え:黒色「×」印の緑ボタンをクリックして拡大、「-」印の緑ボタンをクリックして縮小、緑色の三角印をクリックして隣りの地図に切り替え


METAR-TAF: